sensor_id;sensor_type;location;lat;lon;timestamp;P1;durP1;ratioP1;P2;durP2;ratioP2
2638;SDS011;1329;51.384;7.122;2023-07-31T00:00:41;6.07;;;3.85;;
2638;SDS011;1329;51.384;7.122;2023-07-31T00:03:09;7.90;;;3.88;;
2638;SDS011;1329;51.384;7.122;2023-07-31T00:05:37;6.13;;;3.53;;
2638;SDS011;1329;51.384;7.122;2023-07-31T00:08:04;5.75;;;3.75;;
2638;SDS011;1329;51.384;7.122;2023-07-31T00:10:31;5.68;;;3.55;;
2638;SDS011;1329;51.384;7.122;2023-07-31T00:12:58;6.07;;;4.15;;
2638;SDS011;1329;51.384;7.122;2023-07-31T00:15:25;6.13;;;3.88;;
2638;SDS011;1329;51.384;7.122;2023-07-31T00:17:53;7.63;;;3.85;;
2638;SDS011;1329;51.384;7.122;2023-07-31T00:20:21;5.45;;;4.10;;
2638;SDS011;1329;51.384;7.122;2023-07-31T00:22:49;5.50;;;3.90;;
2638;SDS011;1329;51.384;7.122;2023-07-31T00:25:16;4.97;;;3.40;;
2638;SDS011;1329;51.384;7.122;2023-07-31T00:27:43;6.25;;;3.70;;
2638;SDS011;1329;51.384;7.122;2023-07-31T00:30:11;7.63;;;4.30;;
2638;SDS011;1329;51.384;7.122;2023-07-31T00:32:38;6.55;;;3.67;;
2638;SDS011;1329;51.384;7.122;2023-07-31T00:35:05;5.40;;;3.88;;
2638;SDS011;1329;51.384;7.122;2023-07-31T00:37:32;5.07;;;3.63;;
2638;SDS011;1329;51.384;7.122;2023-07-31T00:40:01;5.07;;;3.75;;
2638;SDS011;1329;51.384;7.122;2023-07-31T00:42:28;6.80;;;4.05;;
2638;SDS011;1329;51.384;7.122;2023-07-31T00:44:55;8.50;;;4.43;;
2638;SDS011;1329;51.384;7.122;2023-07-31T00:47:22;6.10;;;3.85;;
2638;SDS011;1329;51.384;7.122;2023-07-31T00:49:49;4.70;;;4.07;;
2638;SDS011;1329;51.384;7.122;2023-07-31T00:52:16;5.60;;;3.90;;
2638;SDS011;1329;51.384;7.122;2023-07-31T00:54:44;7.43;;;4.50;;
2638;SDS011;1329;51.384;7.122;2023-07-31T00:57:13;6.32;;;4.10;;
2638;SDS011;1329;51.384;7.122;2023-07-31T00:59:40;6.80;;;4.38;;
2638;SDS011;1329;51.384;7.122;2023-07-31T01:02:07;6.28;;;4.07;;
2638;SDS011;1329;51.384;7.122;2023-07-31T01:04:34;6.30;;;4.30;;
2638;SDS011;1329;51.384;7.122;2023-07-31T01:07:02;6.88;;;4.13;;
2638;SDS011;1329;51.384;7.122;2023-07-31T01:09:40;6.22;;;4.10;;
2638;SDS011;1329;51.384;7.122;2023-07-31T01:12:17;7.40;;;4.53;;
2638;SDS011;1329;51.384;7.122;2023-07-31T01:14:51;7.05;;;4.57;;
2638;SDS011;1329;51.384;7.122;2023-07-31T01:17:28;6.40;;;4.00;;
2638;SDS011;1329;51.384;7.122;2023-07-31T01:19:55;5.85;;;3.78;;
2638;SDS011;1329;51.384;7.122;2023-07-31T01:22:30;7.43;;;4.07;;
2638;SDS011;1329;51.384;7.122;2023-07-31T01:25:16;7.03;;;4.00;;
2638;SDS011;1329;51.384;7.122;2023-07-31T01:28:03;6.70;;;4.00;;
2638;SDS011;1329;51.384;7.122;2023-07-31T01:30:34;7.85;;;4.30;;
2638;SDS011;1329;51.384;7.122;2023-07-31T01:33:07;5.30;;;3.63;;
2638;SDS011;1329;51.384;7.122;2023-07-31T01:35:35;6.68;;;3.72;;
2638;SDS011;1329;51.384;7.122;2023-07-31T01:38:03;6.13;;;3.83;;
2638;SDS011;1329;51.384;7.122;2023-07-31T01:40:31;5.70;;;3.97;;
2638;SDS011;1329;51.384;7.122;2023-07-31T01:42:58;6.10;;;3.95;;
2638;SDS011;1329;51.384;7.122;2023-07-31T01:45:26;5.10;;;3.53;;
2638;SDS011;1329;51.384;7.122;2023-07-31T01:47:53;5.68;;;3.72;;
2638;SDS011;1329;51.384;7.122;2023-07-31T01:50:20;5.90;;;3.85;;
2638;SDS011;1329;51.384;7.122;2023-07-31T01:52:47;6.70;;;4.03;;
2638;SDS011;1329;51.384;7.122;2023-07-31T01:55:13;6.93;;;3.90;;
2638;SDS011;1329;51.384;7.122;2023-07-31T01:57:41;5.72;;;4.22;;
2638;SDS011;1329;51.384;7.122;2023-07-31T02:00:08;6.60;;;3.90;;
2638;SDS011;1329;51.384;7.122;2023-07-31T02:02:39;7.68;;;3.92;;
2638;SDS011;1329;51.384;7.122;2023-07-31T02:05:07;5.63;;;4.00;;
2638;SDS011;1329;51.384;7.122;2023-07-31T02:07:34;6.90;;;3.70;;
2638;SDS011;1329;51.384;7.122;2023-07-31T02:10:01;6.93;;;3.80;;
2638;SDS011;1329;51.384;7.122;2023-07-31T02:12:28;6.20;;;3.63;;
2638;SDS011;1329;51.384;7.122;2023-07-31T02:14:57;6.40;;;4.18;;
2638;SDS011;1329;51.384;7.122;2023-07-31T02:17:24;6.97;;;4.28;;
2638;SDS011;1329;51.384;7.122;2023-07-31T02:19:52;5.47;;;4.00;;
2638;SDS011;1329;51.384;7.122;2023-07-31T02:22:19;6.82;;;4.05;;
2638;SDS011;1329;51.384;7.122;2023-07-31T02:24:46;7.03;;;4.10;;
2638;SDS011;1329;51.384;7.122;2023-07-31T02:27:13;7.38;;;3.83;;
2638;SDS011;1329;51.384;7.122;2023-07-31T02:29:40;8.38;;;4.60;;
2638;SDS011;1329;51.384;7.122;2023-07-31T02:32:07;7.13;;;4.13;;
2638;SDS011;1329;51.384;7.122;2023-07-31T02:34:34;7.72;;;4.68;;
2638;SDS011;1329;51.384;7.122;2023-07-31T02:37:02;6.55;;;4.32;;
2638;SDS011;1329;51.384;7.122;2023-07-31T02:39:30;6.55;;;3.70;;
2638;SDS011;1329;51.384;7.122;2023-07-31T02:41:57;5.70;;;3.75;;
2638;SDS011;1329;51.384;7.122;2023-07-31T02:44:24;7.30;;;4.20;;
2638;SDS011;1329;51.384;7.122;2023-07-31T02:46:50;9.15;;;4.30;;
2638;SDS011;1329;51.384;7.122;2023-07-31T02:49:17;6.88;;;4.32;;
2638;SDS011;1329;51.384;7.122;2023-07-31T02:51:44;6.13;;;3.85;;
2638;SDS011;1329;51.384;7.122;2023-07-31T02:54:12;7.45;;;3.80;;
2638;SDS011;1329;51.384;7.122;2023-07-31T02:56:39;6.45;;;4.53;;
2638;SDS011;1329;51.384;7.122;2023-07-31T02:59:06;8.55;;;4.22;;
2638;SDS011;1329;51.384;7.122;2023-07-31T03:01:33;7.20;;;3.75;;
2638;SDS011;1329;51.384;7.122;2023-07-31T03:04:00;8.07;;;4.55;;
2638;SDS011;1329;51.384;7.122;2023-07-31T03:06:27;8.38;;;4.30;;
2638;SDS011;1329;51.384;7.122;2023-07-31T03:08:54;8.05;;;4.28;;
2638;SDS011;1329;51.384;7.122;2023-07-31T03:11:22;6.05;;;4.00;;
2638;SDS011;1329;51.384;7.122;2023-07-31T03:13:49;5.88;;;3.95;;
2638;SDS011;1329;51.384;7.122;2023-07-31T03:16:16;6.45;;;4.10;;
2638;SDS011;1329;51.384;7.122;2023-07-31T03:18:43;9.35;;;4.43;;
2638;SDS011;1329;51.384;7.122;2023-07-31T03:21:10;8.00;;;4.60;;
2638;SDS011;1329;51.384;7.122;2023-07-31T03:23:39;7.07;;;3.90;;
2638;SDS011;1329;51.384;7.122;2023-07-31T03:26:06;4.93;;;3.55;;
2638;SDS011;1329;51.384;7.122;2023-07-31T03:28:35;6.47;;;3.83;;
2638;SDS011;1329;51.384;7.122;2023-07-31T03:31:02;6.78;;;4.43;;
2638;SDS011;1329;51.384;7.122;2023-07-31T03:33:29;6.72;;;4.40;;
2638;SDS011;1329;51.384;7.122;2023-07-31T03:35:56;7.90;;;4.40;;
2638;SDS011;1329;51.384;7.122;2023-07-31T03:38:23;6.75;;;4.25;;
2638;SDS011;1329;51.384;7.122;2023-07-31T03:40:50;5.50;;;4.07;;
2638;SDS011;1329;51.384;7.122;2023-07-31T03:43:17;4.95;;;4.13;;
2638;SDS011;1329;51.384;7.122;2023-07-31T03:45:45;5.55;;;4.00;;
2638;SDS011;1329;51.384;7.122;2023-07-31T03:48:13;7.05;;;3.95;;
2638;SDS011;1329;51.384;7.122;2023-07-31T03:50:40;5.35;;;4.28;;
2638;SDS011;1329;51.384;7.122;2023-07-31T03:53:07;6.63;;;4.60;;
2638;SDS011;1329;51.384;7.122;2023-07-31T03:55:34;5.65;;;3.97;;
2638;SDS011;1329;51.384;7.122;2023-07-31T03:58:01;7.10;;;4.07;;
2638;SDS011;1329;51.384;7.122;2023-07-31T04:00:27;6.75;;;4.50;;
2638;SDS011;1329;51.384;7.122;2023-07-31T04:02:56;4.88;;;4.18;;
2638;SDS011;1329;51.384;7.122;2023-07-31T04:05:22;7.97;;;4.60;;
2638;SDS011;1329;51.384;7.122;2023-07-31T04:07:49;7.18;;;4.28;;
2638;SDS011;1329;51.384;7.122;2023-07-31T04:10:16;6.82;;;4.25;;
2638;SDS011;1329;51.384;7.122;2023-07-31T04:12:43;5.10;;;4.20;;
2638;SDS011;1329;51.384;7.122;2023-07-31T04:15:10;5.60;;;4.18;;
2638;SDS011;1329;51.384;7.122;2023-07-31T04:17:37;6.60;;;4.28;;
2638;SDS011;1329;51.384;7.122;2023-07-31T04:20:06;7.15;;;4.13;;
2638;SDS011;1329;51.384;7.122;2023-07-31T04:22:34;7.57;;;3.97;;
2638;SDS011;1329;51.384;7.122;2023-07-31T04:25:01;6.20;;;4.32;;
2638;SDS011;1329;51.384;7.122;2023-07-31T04:27:28;6.07;;;4.22;;
2638;SDS011;1329;51.384;7.122;2023-07-31T04:29:54;6.05;;;3.70;;
2638;SDS011;1329;51.384;7.122;2023-07-31T04:32:21;5.32;;;4.35;;
2638;SDS011;1329;51.384;7.122;2023-07-31T04:34:48;6.43;;;4.15;;
2638;SDS011;1329;51.384;7.122;2023-07-31T04:37:17;5.57;;;4.18;;
2638;SDS011;1329;51.384;7.122;2023-07-31T04:39:43;4.65;;;3.80;;
2638;SDS011;1329;51.384;7.122;2023-07-31T04:42:10;5.20;;;3.85;;
2638;SDS011;1329;51.384;7.122;2023-07-31T04:44:37;5.97;;;4.03;;
2638;SDS011;1329;51.384;7.122;2023-07-31T04:47:04;5.45;;;3.75;;
2638;SDS011;1329;51.384;7.122;2023-07-31T04:49:31;7.03;;;3.75;;
2638;SDS011;1329;51.384;7.122;2023-07-31T04:51:58;7.75;;;4.30;;
2638;SDS011;1329;51.384;7.122;2023-07-31T04:54:27;6.82;;;4.03;;
2638;SDS011;1329;51.384;7.122;2023-07-31T04:56:54;5.50;;;4.13;;
2638;SDS011;1329;51.384;7.122;2023-07-31T04:59:21;5.85;;;4.07;;
2638;SDS011;1329;51.384;7.122;2023-07-31T05:01:48;6.00;;;4.43;;
2638;SDS011;1329;51.384;7.122;2023-07-31T05:04:18;5.25;;;4.30;;
2638;SDS011;1329;51.384;7.122;2023-07-31T05:06:45;7.32;;;4.65;;
2638;SDS011;1329;51.384;7.122;2023-07-31T05:09:11;5.28;;;4.10;;
2638;SDS011;1329;51.384;7.122;2023-07-31T05:11:40;7.55;;;4.22;;
2638;SDS011;1329;51.384;7.122;2023-07-31T05:14:08;8.00;;;4.45;;
2638;SDS011;1329;51.384;7.122;2023-07-31T05:16:35;7.85;;;4.80;;
2638;SDS011;1329;51.384;7.122;2023-07-31T05:19:02;7.38;;;4.80;;
2638;SDS011;1329;51.384;7.122;2023-07-31T05:21:28;6.70;;;4.88;;
2638;SDS011;1329;51.384;7.122;2023-07-31T05:23:55;5.97;;;4.53;;
2638;SDS011;1329;51.384;7.122;2023-07-31T05:26:22;6.85;;;4.30;;
2638;SDS011;1329;51.384;7.122;2023-07-31T05:28:50;6.22;;;5.00;;
2638;SDS011;1329;51.384;7.122;2023-07-31T05:31:17;7.18;;;4.93;;
2638;SDS011;1329;51.384;7.122;2023-07-31T05:33:45;9.93;;;4.75;;
2638;SDS011;1329;51.384;7.122;2023-07-31T05:36:12;5.78;;;4.53;;
2638;SDS011;1329;51.384;7.122;2023-07-31T05:38:39;6.28;;;4.30;;
2638;SDS011;1329;51.384;7.122;2023-07-31T05:41:07;5.57;;;4.68;;
2638;SDS011;1329;51.384;7.122;2023-07-31T05:43:34;6.43;;;4.63;;
2638;SDS011;1329;51.384;7.122;2023-07-31T05:46:02;5.97;;;4.50;;
2638;SDS011;1329;51.384;7.122;2023-07-31T05:48:29;5.78;;;4.60;;
2638;SDS011;1329;51.384;7.122;2023-07-31T05:50:56;5.10;;;4.50;;
2638;SDS011;1329;51.384;7.122;2023-07-31T05:53:23;6.90;;;4.75;;
2638;SDS011;1329;51.384;7.122;2023-07-31T05:55:50;7.15;;;5.38;;
2638;SDS011;1329;51.384;7.122;2023-07-31T05:58:17;6.15;;;4.82;;
2638;SDS011;1329;51.384;7.122;2023-07-31T06:00:44;6.18;;;4.75;;
2638;SDS011;1329;51.384;7.122;2023-07-31T06:03:12;5.22;;;4.40;;
2638;SDS011;1329;51.384;7.122;2023-07-31T06:05:39;5.47;;;4.63;;
2638;SDS011;1329;51.384;7.122;2023-07-31T06:08:06;8.00;;;4.60;;
2638;SDS011;1329;51.384;7.122;2023-07-31T06:10:33;6.32;;;4.97;;
2638;SDS011;1329;51.384;7.122;2023-07-31T06:13:00;5.80;;;4.88;;
2638;SDS011;1329;51.384;7.122;2023-07-31T06:15:27;5.75;;;4.90;;
2638;SDS011;1329;51.384;7.122;2023-07-31T06:17:55;8.45;;;5.47;;
2638;SDS011;1329;51.384;7.122;2023-07-31T06:20:24;6.78;;;4.95;;
2638;SDS011;1329;51.384;7.122;2023-07-31T06:22:51;7.13;;;4.93;;
2638;SDS011;1329;51.384;7.122;2023-07-31T06:25:18;7.45;;;5.25;;
2638;SDS011;1329;51.384;7.122;2023-07-31T06:27:45;5.85;;;5.10;;
2638;SDS011;1329;51.384;7.122;2023-07-31T06:30:11;7.88;;;5.15;;
2638;SDS011;1329;51.384;7.122;2023-07-31T06:32:38;6.00;;;4.78;;
2638;SDS011;1329;51.384;7.122;2023-07-31T06:35:06;7.20;;;4.95;;
2638;SDS011;1329;51.384;7.122;2023-07-31T06:37:36;6.18;;;4.75;;
2638;SDS011;1329;51.384;7.122;2023-07-31T06:40:05;5.30;;;4.60;;
2638;SDS011;1329;51.384;7.122;2023-07-31T06:42:34;6.85;;;4.65;;
2638;SDS011;1329;51.384;7.122;2023-07-31T06:45:01;5.07;;;4.28;;
2638;SDS011;1329;51.384;7.122;2023-07-31T06:47:28;5.35;;;4.45;;
2638;SDS011;1329;51.384;7.122;2023-07-31T06:49:55;5.25;;;4.53;;
2638;SDS011;1329;51.384;7.122;2023-07-31T06:52:22;4.63;;;4.05;;
2638;SDS011;1329;51.384;7.122;2023-07-31T06:55:01;5.63;;;4.55;;
2638;SDS011;1329;51.384;7.122;2023-07-31T06:57:30;5.65;;;4.25;;
2638;SDS011;1329;51.384;7.122;2023-07-31T06:59:58;5.30;;;4.47;;
2638;SDS011;1329;51.384;7.122;2023-07-31T07:02:25;4.60;;;3.92;;
2638;SDS011;1329;51.384;7.122;2023-07-31T07:04:52;4.72;;;4.00;;
2638;SDS011;1329;51.384;7.122;2023-07-31T07:07:19;4.47;;;3.72;;
2638;SDS011;1329;51.384;7.122;2023-07-31T07:09:46;4.90;;;3.83;;
2638;SDS011;1329;51.384;7.122;2023-07-31T07:12:14;4.88;;;3.97;;
2638;SDS011;1329;51.384;7.122;2023-07-31T07:14:41;6.05;;;3.97;;
2638;SDS011;1329;51.384;7.122;2023-07-31T07:17:08;4.95;;;3.90;;
2638;SDS011;1329;51.384;7.122;2023-07-31T07:19:35;6.00;;;4.38;;
2638;SDS011;1329;51.384;7.122;2023-07-31T07:22:01;4.47;;;3.90;;
2638;SDS011;1329;51.384;7.122;2023-07-31T07:24:28;4.40;;;4.00;;
2638;SDS011;1329;51.384;7.122;2023-07-31T07:26:55;5.88;;;4.28;;
2638;SDS011;1329;51.384;7.122;2023-07-31T07:29:24;5.00;;;3.97;;
2638;SDS011;1329;51.384;7.122;2023-07-31T07:31:51;4.80;;;4.30;;
2638;SDS011;1329;51.384;7.122;2023-07-31T07:34:17;4.68;;;3.92;;
2638;SDS011;1329;51.384;7.122;2023-07-31T07:36:45;4.57;;;4.15;;
2638;SDS011;1329;51.384;7.122;2023-07-31T07:39:12;7.18;;;4.35;;
2638;SDS011;1329;51.384;7.122;2023-07-31T07:41:39;7.15;;;4.43;;
2638;SDS011;1329;51.384;7.122;2023-07-31T07:44:05;5.05;;;4.00;;
2638;SDS011;1329;51.384;7.122;2023-07-31T07:46:35;4.20;;;3.72;;
2638;SDS011;1329;51.384;7.122;2023-07-31T07:49:02;5.40;;;3.90;;
2638;SDS011;1329;51.384;7.122;2023-07-31T07:51:29;5.22;;;4.03;;
2638;SDS011;1329;51.384;7.122;2023-07-31T07:53:56;5.55;;;4.18;;
2638;SDS011;1329;51.384;7.122;2023-07-31T07:56:23;4.40;;;4.00;;
2638;SDS011;1329;51.384;7.122;2023-07-31T07:58:52;5.10;;;3.90;;
2638;SDS011;1329;51.384;7.122;2023-07-31T08:01:19;5.32;;;3.90;;
2638;SDS011;1329;51.384;7.122;2023-07-31T08:03:47;4.63;;;3.90;;
2638;SDS011;1329;51.384;7.122;2023-07-31T08:06:14;4.13;;;3.50;;
2638;SDS011;1329;51.384;7.122;2023-07-31T08:08:41;4.63;;;4.00;;
2638;SDS011;1329;51.384;7.122;2023-07-31T08:11:08;5.25;;;3.90;;
2638;SDS011;1329;51.384;7.122;2023-07-31T08:13:35;4.28;;;3.67;;
2638;SDS011;1329;51.384;7.122;2023-07-31T08:16:03;5.00;;;3.33;;
2638;SDS011;1329;51.384;7.122;2023-07-31T08:18:30;3.38;;;2.97;;
2638;SDS011;1329;51.384;7.122;2023-07-31T08:20:59;5.32;;;3.53;;
2638;SDS011;1329;51.384;7.122;2023-07-31T08:23:27;3.75;;;3.30;;
2638;SDS011;1329;51.384;7.122;2023-07-31T08:25:54;3.78;;;3.22;;
2638;SDS011;1329;51.384;7.122;2023-07-31T08:28:21;3.95;;;3.25;;
2638;SDS011;1329;51.384;7.122;2023-07-31T08:30:48;4.47;;;3.05;;
2638;SDS011;1329;51.384;7.122;2023-07-31T08:33:15;4.32;;;3.20;;
2638;SDS011;1329;51.384;7.122;2023-07-31T08:35:42;3.53;;;3.22;;
2638;SDS011;1329;51.384;7.122;2023-07-31T08:38:11;3.67;;;2.90;;
2638;SDS011;1329;51.384;7.122;2023-07-31T08:40:38;3.20;;;2.80;;
2638;SDS011;1329;51.384;7.122;2023-07-31T08:43:05;2.90;;;2.70;;
2638;SDS011;1329;51.384;7.122;2023-07-31T08:45:35;3.83;;;3.00;;
2638;SDS011;1329;51.384;7.122;2023-07-31T08:48:03;3.72;;;3.20;;
2638;SDS011;1329;51.384;7.122;2023-07-31T08:50:30;4.95;;;3.17;;
2638;SDS011;1329;51.384;7.122;2023-07-31T08:52:57;3.75;;;3.10;;
2638;SDS011;1329;51.384;7.122;2023-07-31T08:55:26;5.13;;;3.25;;
2638;SDS011;1329;51.384;7.122;2023-07-31T08:57:54;4.32;;;3.58;;
2638;SDS011;1329;51.384;7.122;2023-07-31T09:00:22;4.75;;;3.20;;
2638;SDS011;1329;51.384;7.122;2023-07-31T09:02:52;3.38;;;3.00;;
2638;SDS011;1329;51.384;7.122;2023-07-31T09:05:23;4.18;;;3.30;;
2638;SDS011;1329;51.384;7.122;2023-07-31T09:07:53;4.03;;;2.90;;
2638;SDS011;1329;51.384;7.122;2023-07-31T09:10:22;3.47;;;3.17;;
2638;SDS011;1329;51.384;7.122;2023-07-31T09:12:52;3.20;;;2.67;;
2638;SDS011;1329;51.384;7.122;2023-07-31T09:15:19;4.28;;;2.83;;
2638;SDS011;1329;51.384;7.122;2023-07-31T09:17:46;3.00;;;2.58;;
2638;SDS011;1329;51.384;7.122;2023-07-31T09:20:14;3.55;;;2.90;;
2638;SDS011;1329;51.384;7.122;2023-07-31T09:22:42;3.90;;;2.63;;
2638;SDS011;1329;51.384;7.122;2023-07-31T09:25:16;2.63;;;2.42;;
2638;SDS011;1329;51.384;7.122;2023-07-31T09:27:47;3.10;;;2.80;;
2638;SDS011;1329;51.384;7.122;2023-07-31T09:30:17;2.72;;;2.17;;
2638;SDS011;1329;51.384;7.122;2023-07-31T09:32:45;2.75;;;2.47;;
2638;SDS011;1329;51.384;7.122;2023-07-31T09:35:13;2.95;;;2.65;;
2638;SDS011;1329;51.384;7.122;2023-07-31T09:37:49;3.08;;;2.67;;
2638;SDS011;1329;51.384;7.122;2023-07-31T09:40:30;3.08;;;2.78;;
2638;SDS011;1329;51.384;7.122;2023-07-31T09:42:58;2.75;;;2.55;;
2638;SDS011;1329;51.384;7.122;2023-07-31T09:45:28;3.15;;;2.83;;
2638;SDS011;1329;51.384;7.122;2023-07-31T09:47:56;2.90;;;2.70;;
2638;SDS011;1329;51.384;7.122;2023-07-31T09:50:24;2.40;;;2.20;;
2638;SDS011;1329;51.384;7.122;2023-07-31T09:52:54;2.47;;;2.28;;
2638;SDS011;1329;51.384;7.122;2023-07-31T09:55:21;2.70;;;2.50;;
2638;SDS011;1329;51.384;7.122;2023-07-31T09:57:48;3.00;;;2.70;;
2638;SDS011;1329;51.384;7.122;2023-07-31T10:00:17;2.78;;;2.50;;
2638;SDS011;1329;51.384;7.122;2023-07-31T10:02:48;2.65;;;2.45;;
2638;SDS011;1329;51.384;7.122;2023-07-31T10:05:17;2.95;;;2.20;;
2638;SDS011;1329;51.384;7.122;2023-07-31T10:07:51;2.67;;;2.10;;
2638;SDS011;1329;51.384;7.122;2023-07-31T10:10:21;2.83;;;2.15;;
2638;SDS011;1329;51.384;7.122;2023-07-31T10:12:49;2.08;;;1.92;;
2638;SDS011;1329;51.384;7.122;2023-07-31T10:15:18;2.17;;;2.00;;
2638;SDS011;1329;51.384;7.122;2023-07-31T10:17:47;2.00;;;1.90;;
2638;SDS011;1329;51.384;7.122;2023-07-31T10:20:15;2.10;;;1.90;;
2638;SDS011;1329;51.384;7.122;2023-07-31T10:22:43;2.22;;;2.03;;
2638;SDS011;1329;51.384;7.122;2023-07-31T10:25:11;2.20;;;2.00;;
2638;SDS011;1329;51.384;7.122;2023-07-31T10:27:39;1.70;;;1.60;;
2638;SDS011;1329;51.384;7.122;2023-07-31T10:30:07;1.75;;;1.65;;
2638;SDS011;1329;51.384;7.122;2023-07-31T10:32:38;1.88;;;1.77;;
2638;SDS011;1329;51.384;7.122;2023-07-31T10:35:09;2.13;;;1.85;;
2638;SDS011;1329;51.384;7.122;2023-07-31T10:37:37;1.85;;;1.75;;
2638;SDS011;1329;51.384;7.122;2023-07-31T10:40:09;2.22;;;1.65;;
2638;SDS011;1329;51.384;7.122;2023-07-31T10:42:45;2.40;;;2.20;;
2638;SDS011;1329;51.384;7.122;2023-07-31T10:45:14;2.30;;;2.10;;
2638;SDS011;1329;51.384;7.122;2023-07-31T10:47:51;2.38;;;2.20;;
2638;SDS011;1329;51.384;7.122;2023-07-31T10:50:28;3.40;;;2.63;;
2638;SDS011;1329;51.384;7.122;2023-07-31T10:52:57;2.95;;;2.60;;
2638;SDS011;1329;51.384;7.122;2023-07-31T10:55:29;3.78;;;2.42;;
2638;SDS011;1329;51.384;7.122;2023-07-31T10:58:05;3.72;;;3.33;;
2638;SDS011;1329;51.384;7.122;2023-07-31T11:00:36;3.45;;;2.88;;
2638;SDS011;1329;51.384;7.122;2023-07-31T11:03:05;3.15;;;2.85;;
2638;SDS011;1329;51.384;7.122;2023-07-31T11:08:29;4.00;;;3.10;;
2638;SDS011;1329;51.384;7.122;2023-07-31T11:11:07;3.67;;;3.00;;
2638;SDS011;1329;51.384;7.122;2023-07-31T11:13:39;3.50;;;2.92;;
2638;SDS011;1329;51.384;7.122;2023-07-31T11:16:09;4.28;;;3.20;;
2638;SDS011;1329;51.384;7.122;2023-07-31T11:18:38;3.88;;;3.28;;
2638;SDS011;1329;51.384;7.122;2023-07-31T11:21:08;5.10;;;3.40;;
2638;SDS011;1329;51.384;7.122;2023-07-31T11:23:38;3.60;;;3.28;;
2638;SDS011;1329;51.384;7.122;2023-07-31T11:26:05;5.25;;;3.47;;
2638;SDS011;1329;51.384;7.122;2023-07-31T11:28:34;4.95;;;3.38;;
2638;SDS011;1329;51.384;7.122;2023-07-31T11:31:02;4.20;;;3.40;;
2638;SDS011;1329;51.384;7.122;2023-07-31T11:33:29;3.55;;;3.25;;
2638;SDS011;1329;51.384;7.122;2023-07-31T11:35:57;3.80;;;3.30;;
2638;SDS011;1329;51.384;7.122;2023-07-31T11:38:26;4.50;;;3.63;;
2638;SDS011;1329;51.384;7.122;2023-07-31T11:40:55;4.38;;;3.38;;
2638;SDS011;1329;51.384;7.122;2023-07-31T11:43:24;4.53;;;3.60;;
2638;SDS011;1329;51.384;7.122;2023-07-31T11:45:52;3.40;;;2.95;;
2638;SDS011;1329;51.384;7.122;2023-07-31T11:48:21;3.75;;;2.88;;
2638;SDS011;1329;51.384;7.122;2023-07-31T11:50:51;3.33;;;2.90;;
2638;SDS011;1329;51.384;7.122;2023-07-31T11:53:21;2.95;;;2.65;;
2638;SDS011;1329;51.384;7.122;2023-07-31T11:55:54;3.38;;;2.50;;
2638;SDS011;1329;51.384;7.122;2023-07-31T11:58:24;3.22;;;2.60;;
2638;SDS011;1329;51.384;7.122;2023-07-31T12:00:51;2.67;;;2.38;;
2638;SDS011;1329;51.384;7.122;2023-07-31T12:03:19;2.53;;;2.33;;
2638;SDS011;1329;51.384;7.122;2023-07-31T12:05:46;3.95;;;2.63;;
2638;SDS011;1329;51.384;7.122;2023-07-31T12:08:14;2.50;;;2.30;;
2638;SDS011;1329;51.384;7.122;2023-07-31T12:10:42;2.42;;;2.22;;
2638;SDS011;1329;51.384;7.122;2023-07-31T12:13:10;2.28;;;2.08;;
2638;SDS011;1329;51.384;7.122;2023-07-31T12:15:48;2.53;;;2.25;;
2638;SDS011;1329;51.384;7.122;2023-07-31T12:18:17;2.58;;;2.10;;
2638;SDS011;1329;51.384;7.122;2023-07-31T12:20:46;2.72;;;2.50;;
2638;SDS011;1329;51.384;7.122;2023-07-31T12:23:16;2.33;;;2.13;;
2638;SDS011;1329;51.384;7.122;2023-07-31T12:25:54;2.22;;;2.03;;
2638;SDS011;1329;51.384;7.122;2023-07-31T12:28:27;2.42;;;2.22;;
2638;SDS011;1329;51.384;7.122;2023-07-31T12:30:56;2.17;;;1.98;;
2638;SDS011;1329;51.384;7.122;2023-07-31T12:33:30;2.50;;;2.00;;
2638;SDS011;1329;51.384;7.122;2023-07-31T12:35:59;2.40;;;2.20;;
2638;SDS011;1329;51.384;7.122;2023-07-31T12:38:28;2.25;;;2.00;;
2638;SDS011;1329;51.384;7.122;2023-07-31T12:40:56;2.10;;;1.90;;
2638;SDS011;1329;51.384;7.122;2023-07-31T12:43:23;2.33;;;2.13;;
2638;SDS011;1329;51.384;7.122;2023-07-31T12:45:50;2.25;;;2.00;;
2638;SDS011;1329;51.384;7.122;2023-07-31T12:48:17;2.10;;;1.90;;
2638;SDS011;1329;51.384;7.122;2023-07-31T12:50:44;2.00;;;1.80;;
2638;SDS011;1329;51.384;7.122;2023-07-31T12:53:11;1.95;;;1.65;;
2638;SDS011;1329;51.384;7.122;2023-07-31T12:55:38;2.15;;;1.95;;
2638;SDS011;1329;51.384;7.122;2023-07-31T12:58:06;2.10;;;1.70;;
2638;SDS011;1329;51.384;7.122;2023-07-31T13:00:36;2.17;;;1.95;;
2638;SDS011;1329;51.384;7.122;2023-07-31T13:03:03;2.10;;;1.85;;
2638;SDS011;1329;51.384;7.122;2023-07-31T13:05:30;2.13;;;1.95;;
2638;SDS011;1329;51.384;7.122;2023-07-31T13:07:57;1.60;;;1.50;;
2638;SDS011;1329;51.384;7.122;2023-07-31T13:10:24;1.90;;;1.80;;
2638;SDS011;1329;51.384;7.122;2023-07-31T13:12:51;1.70;;;1.40;;
2638;SDS011;1329;51.384;7.122;2023-07-31T13:15:20;2.50;;;2.20;;
2638;SDS011;1329;51.384;7.122;2023-07-31T13:17:47;1.95;;;1.63;;
2638;SDS011;1329;51.384;7.122;2023-07-31T13:20:14;2.67;;;1.90;;
2638;SDS011;1329;51.384;7.122;2023-07-31T13:22:41;2.28;;;2.08;;
2638;SDS011;1329;51.384;7.122;2023-07-31T13:25:08;1.90;;;1.77;;
2638;SDS011;1329;51.384;7.122;2023-07-31T13:27:35;2.25;;;2.05;;
2638;SDS011;1329;51.384;7.122;2023-07-31T13:30:02;2.03;;;1.88;;
2638;SDS011;1329;51.384;7.122;2023-07-31T13:32:32;2.45;;;2.05;;
2638;SDS011;1329;51.384;7.122;2023-07-31T13:35:03;2.60;;;2.08;;
2638;SDS011;1329;51.384;7.122;2023-07-31T13:37:31;2.80;;;2.22;;
2638;SDS011;1329;51.384;7.122;2023-07-31T13:39:58;2.35;;;2.10;;
2638;SDS011;1329;51.384;7.122;2023-07-31T13:42:25;2.40;;;2.20;;
2638;SDS011;1329;51.384;7.122;2023-07-31T13:44:53;2.38;;;2.17;;
2638;SDS011;1329;51.384;7.122;2023-07-31T13:47:21;2.60;;;2.40;;
2638;SDS011;1329;51.384;7.122;2023-07-31T13:49:50;3.75;;;2.55;;
2638;SDS011;1329;51.384;7.122;2023-07-31T13:52:17;3.10;;;2.80;;
2638;SDS011;1329;51.384;7.122;2023-07-31T13:54:44;2.78;;;2.58;;
2638;SDS011;1329;51.384;7.122;2023-07-31T13:57:11;3.65;;;3.03;;
2638;SDS011;1329;51.384;7.122;2023-07-31T13:59:37;3.67;;;2.63;;
2638;SDS011;1329;51.384;7.122;2023-07-31T14:02:04;3.13;;;2.83;;
2638;SDS011;1329;51.384;7.122;2023-07-31T14:04:32;3.00;;;2.75;;
2638;SDS011;1329;51.384;7.122;2023-07-31T14:07:00;3.05;;;2.80;;
2638;SDS011;1329;51.384;7.122;2023-07-31T14:09:28;3.15;;;2.85;;
2638;SDS011;1329;51.384;7.122;2023-07-31T14:11:55;3.63;;;3.08;;
2638;SDS011;1329;51.384;7.122;2023-07-31T14:14:25;3.53;;;3.22;;
2638;SDS011;1329;51.384;7.122;2023-07-31T14:16:51;3.30;;;3.00;;
2638;SDS011;1329;51.384;7.122;2023-07-31T14:19:21;3.70;;;3.35;;
2638;SDS011;1329;51.384;7.122;2023-07-31T14:21:50;3.22;;;2.92;;
2638;SDS011;1329;51.384;7.122;2023-07-31T14:24:21;3.63;;;3.33;;
2638;SDS011;1329;51.384;7.122;2023-07-31T14:26:48;3.75;;;3.35;;
2638;SDS011;1329;51.384;7.122;2023-07-31T14:29:17;4.43;;;3.42;;
2638;SDS011;1329;51.384;7.122;2023-07-31T14:31:44;3.58;;;3.05;;
2638;SDS011;1329;51.384;7.122;2023-07-31T14:34:11;3.95;;;3.40;;
2638;SDS011;1329;51.384;7.122;2023-07-31T14:36:38;4.68;;;3.05;;
2638;SDS011;1329;51.384;7.122;2023-07-31T14:39:05;4.05;;;3.30;;
2638;SDS011;1329;51.384;7.122;2023-07-31T14:41:34;3.45;;;3.15;;
2638;SDS011;1329;51.384;7.122;2023-07-31T14:44:00;3.72;;;2.92;;
2638;SDS011;1329;51.384;7.122;2023-07-31T14:46:27;4.35;;;3.60;;
2638;SDS011;1329;51.384;7.122;2023-07-31T14:48:54;2.85;;;2.65;;
2638;SDS011;1329;51.384;7.122;2023-07-31T14:51:21;3.85;;;3.30;;
2638;SDS011;1329;51.384;7.122;2023-07-31T14:53:49;3.13;;;2.83;;
2638;SDS011;1329;51.384;7.122;2023-07-31T14:56:16;3.35;;;2.97;;
2638;SDS011;1329;51.384;7.122;2023-07-31T14:58:44;3.85;;;3.35;;
2638;SDS011;1329;51.384;7.122;2023-07-31T15:01:11;3.53;;;3.22;;
2638;SDS011;1329;51.384;7.122;2023-07-31T15:03:38;4.97;;;3.42;;
2638;SDS011;1329;51.384;7.122;2023-07-31T15:06:05;3.35;;;3.05;;
2638;SDS011;1329;51.384;7.122;2023-07-31T15:08:32;3.20;;;2.90;;
2638;SDS011;1329;51.384;7.122;2023-07-31T15:11:01;3.50;;;3.20;;
2638;SDS011;1329;51.384;7.122;2023-07-31T15:13:28;4.97;;;3.83;;
2638;SDS011;1329;51.384;7.122;2023-07-31T15:15:56;3.70;;;3.25;;
2638;SDS011;1329;51.384;7.122;2023-07-31T15:18:23;4.97;;;3.45;;
2638;SDS011;1329;51.384;7.122;2023-07-31T15:20:50;3.42;;;3.13;;
2638;SDS011;1329;51.384;7.122;2023-07-31T15:23:17;3.47;;;3.17;;